Historyczne dane pomiarowe

Dodano dane terminowe – wersja testowa.

Dane z okresu 1951-2019

Wersja bazy: 1.34 [2019-03-16, lista zmian], aktualizacja planowana na 2019-04-15

Dane meteo z obszaru Polski uzyskane na podstawie danych udostępnionych przez Instytut Meteorologii i Gospodarki Wodnej – Państwowy Instytut Badawczy.

 

Wybierz Datę:    

       

TemperaturaWilgotnośćWiatrCiśnienieOpadyŚniegCzas trwania zjawisk
 Stacja t tx tn tng RH VA  wxwx mslp ppp RRR   cm mm wxwxwxwxwxwxwx
1994-08-14 12.3 17.5 9.6- 59.3- 6.7 3.3---- 0.0------------
1994-08-13 15.2 18.9 11.4- 66.3- 5.3 4.3---- 0.0------------
1994-08-12 15.0 18.3 11.4- 79.3- 8.0 2.7---- 4.4------------
1994-08-11 17.7 22.3 14.9- 75.5- 6.7 1.0---- 5.4------------
1994-08-10 18.6 24.7 11.2- 64.3- 1.3 0.3---- 0.0------------
1994-08-09 16.9 21.5 14.9- 87.3- 7.0 0.7---- 0.8------------
1994-08-08 20.2 26.7 14.9- 68.5- 5.3 0.3---- 0.0------------
1994-08-07 21.4 25.5 17.5- 62.3- 6.7 0.0---- 0.0------------
1994-08-06 21.2 26.9 16.9- 55.5- 3.7 0.7---- 0.0------------
1994-08-05 21.4 25.7 15.4- 63.8- 1.3 0.3---- 0.0------------
1994-08-04 19.4 23.5 14.8- 69.0- 4.7 0.3---- 0.0------------
1994-08-03 21.2 24.4 17.4- 66.0- 6.0 0.7---- 1.4------------
1994-08-02 22.7 27.1 17.9- 52.3- 4.7 0.3---- 0.0------------
1994-08-01 24.2 29.4 17.4- 50.8- 3.7 0.3---- 0.0------------
1994-07-31 24.1 29.3 17.3- 41.3- 1.7 0.0---- 0.0------------
1994-07-30 23.2 28.5 18.1- 38.0- 0.0 0.0---- 0.0------------
1994-07-29 22.9 27.7 16.9- 39.0- 2.0 0.3---- 0.0------------
1994-07-28 21.4 26.9 12.0- 38.3- 4.3 1.3---- 0.0------------
1994-07-27 22.5 27.5 16.5- 43.3- 1.7 0.3---- 0.0------------
1994-07-26 22.3 26.1 16.9- 46.5- 1.3 0.3---- 0.0------------
1994-07-25 21.3 26.5 15.9- 47.8- 3.3 0.0---- 0.0------------
1994-07-24 20.4 24.9 14.9- 45.5- 2.0 0.3---- 0.0------------
1994-07-23 18.8 23.3 12.6- 50.0- 0.7 0.3---- 0.0------------
1994-07-22 18.6 22.5 12.0- 46.5- 0.7 0.3---- 0.0------------
1994-07-21 16.2 21.1 10.0- 56.5- 1.0 0.7---- 0.0------------
1994-07-20 15.2 18.9 10.8- 59.3- 2.3 0.7---- 0.0------------
1994-07-19 17.8 21.5 14.4- 62.5- 6.7 0.7---- 0.0------------
1994-07-18 18.6 22.5 14.4- 74.3- 4.7 0.7---- 0.0------------
1994-07-17 18.9 23.5 14.0- 67.0- 5.0 0.3---- 6.3------------
1994-07-16 17.8 23.1 13.0- 69.5- 5.0 0.3---- 0.2------------
1994-07-15 17.2 21.9 11.4- 74.5- 4.0 0.3---- 0.0------------
1994-07-14 18.0 22.9 14.0- 66.8- 5.7 0.3---- 5.3------------
1994-07-13 18.6 23.1 13.5- 51.5- 2.0 0.7---- 0.0------------
1994-07-12 16.6 20.5 12.4- 71.8- 5.0 0.3---- 0.0------------
1994-07-11 14.5 18.9 11.2- 73.8- 7.3 0.3---- 0.8------------
1994-07-10 10.6 12.6 8.6- 85.3- 8.0 0.7---- 5.2------------
1994-07-09 12.0 17.0 10.0- 73.3- 7.3 2.3---- 10.2------------
1994-07-08 13.9 17.9 11.2- 59.8- 4.3 3.0---- 0.0------------
1994-07-07 14.7 20.5 12.4- 81.3- 7.0 0.0---- 9.7------------
1994-07-06 17.3 20.5 12.0- 58.8- 4.7 2.3---- 0.0------------
1994-07-05 18.6 22.5 14.8- 58.3- 7.0 0.0---- 0.0------------
1994-07-04 19.4 24.5 12.4- 52.3- 0.3 0.3---- 0.0------------
1994-07-03 17.9 23.4 10.6- 49.5- 0.3 0.0---- 0.0------------
1994-07-02 16.4 20.9 10.2- 54.0- 0.0 0.7---- 0.0------------
1994-07-01 15.5 19.5 12.4- 71.3- 6.3 0.7---- 0.0------------
1994-06-30 20.0 24.3 16.7- 76.8- 6.3 1.0---- 4.1------------
1994-06-29 21.1 26.5 15.9- 68.5- 1.7 0.3---- 0.0------------
1994-06-28 22.3 26.5 18.7- 64.3- 2.0 0.3---- 0.0------------
1994-06-27 21.5 27.9 14.9- 64.0- 3.7 0.0---- 0.0------------
1994-06-26 19.4 25.9 10.8- 42.8- 0.3 0.3---- 0.0------------
1994-06-25 15.3 21.5 6.6- 37.5- 0.0 0.3---- 0.0------------
1994-06-24 12.4 17.6 7.4- 38.0- 2.3 2.0---- 0.0------------
1994-06-23 15.1 19.9 11.0- 65.5- 6.0 2.0---- 0.0------------
1994-06-22 17.4 23.1 9.0- 53.0- 3.7 3.0---- 0.5------------
1994-06-21 13.8 17.5 9.0- 59.8- 2.3 1.7---- 0.0------------
1994-06-20 15.8 19.8 13.0- 58.0- 5.3 3.0---- 0.0------------
1994-06-19 15.8 21.5 8.2- 53.5- 4.0 2.3---- 0.0------------
1994-06-18 10.9 16.4 4.0- 53.0- 6.0 4.0---- 4.8------------
1994-06-17 8.1 11.6 5.2- 77.5- 8.0 1.3---- 1.8------------
1994-06-16 10.8 14.0 7.6- 60.3- 7.3 3.0---- 3.3------------
262.7 ms

 

Źródłem pochodzenia danych jest Instytut Meteorologii i Gospodarki Wodnej – Państwowy Instytut Badawczy. Dane Instytutu Meteorologii i Gospodarki Wodnej – Państwowego Instytutu Badawczego zostały przetworzone.

Dane źródłowe można odnaleźć na stronie https://dane.imgw.pl